createdAt,value
2022-11-16T00:02:01.080Z,69.20
2022-11-16T00:04:37.348Z,69.10
2022-11-16T00:07:13.710Z,81.40
2022-11-16T00:09:49.702Z,71.60
2022-11-16T00:12:25.832Z,66.00
2022-11-16T00:15:01.882Z,62.70
2022-11-16T00:17:37.619Z,70.50
2022-11-16T00:20:15.827Z,65.30
2022-11-16T00:22:51.642Z,68.50
2022-11-16T00:25:27.638Z,70.30
2022-11-16T00:28:03.447Z,73.30
2022-11-16T00:30:39.781Z,72.80
2022-11-16T00:33:18.362Z,73.70
2022-11-16T00:35:54.214Z,70.30
2022-11-16T00:38:30.563Z,71.80
2022-11-16T00:41:07.385Z,77.90
2022-11-16T00:43:43.352Z,80.20
2022-11-16T00:46:19.441Z,78.40
2022-11-16T00:48:55.504Z,68.40
2022-11-16T00:51:31.502Z,75.00
2022-11-16T00:54:10.027Z,71.50
2022-11-16T00:56:46.131Z,68.50
2022-11-16T00:59:21.964Z,73.00
2022-11-16T01:01:57.926Z,67.20
2022-11-16T01:04:33.800Z,75.00
2022-11-16T01:07:09.906Z,65.90
2022-11-16T01:09:45.838Z,63.40
2022-11-16T01:12:21.736Z,72.50
2022-11-16T01:14:57.984Z,66.90
2022-11-16T01:17:33.889Z,72.20
2022-11-16T01:20:16.711Z,70.80
2022-11-16T01:22:52.831Z,69.70
2022-11-16T01:25:28.937Z,69.00
2022-11-16T01:28:05.089Z,78.50
2022-11-16T01:30:54.945Z,68.90
2022-11-16T01:33:31.503Z,67.20
2022-11-16T01:36:14.837Z,72.40
2022-11-16T01:38:51.766Z,69.00
2022-11-16T01:41:30.328Z,75.10
2022-11-16T01:44:47.848Z,71.10
2022-11-16T01:47:26.169Z,71.10
2022-11-16T01:50:14.286Z,72.30
2022-11-16T01:52:59.933Z,73.60
2022-11-16T01:55:44.484Z,74.10
2022-11-16T01:58:30.054Z,71.50
2022-11-16T02:01:12.283Z,73.60
2022-11-16T02:03:53.015Z,68.20
2022-11-16T02:06:59.994Z,70.30
2022-11-16T02:10:07.970Z,67.80
2022-11-16T02:13:22.041Z,79.10
2022-11-16T02:16:13.413Z,64.40
2022-11-16T02:19:03.171Z,69.30
2022-11-16T02:21:48.382Z,75.50
2022-11-16T02:25:00.271Z,74.60
2022-11-16T02:28:27.467Z,68.90
2022-11-16T02:31:14.293Z,72.70
2022-11-16T02:33:54.210Z,74.50
2022-11-16T02:36:33.622Z,75.90
2022-11-16T02:39:16.958Z,72.90
2022-11-16T02:41:57.081Z,76.30
2022-11-16T02:44:37.809Z,74.70
2022-11-16T02:47:21.358Z,75.90
2022-11-16T02:50:05.043Z,70.20
2022-11-16T02:52:41.791Z,69.00
2022-11-16T02:55:19.049Z,69.40
2022-11-16T02:58:02.683Z,70.10
2022-11-16T03:00:49.160Z,75.70
2022-11-16T03:03:40.791Z,69.00
2022-11-16T03:06:24.392Z,80.00
2022-11-16T03:09:10.203Z,77.60
2022-11-16T03:12:02.970Z,71.80
2022-11-16T03:14:50.231Z,73.70
2022-11-16T03:17:33.925Z,70.40
2022-11-16T03:20:17.086Z,76.90
2022-11-16T03:22:59.045Z,75.90
2022-11-16T03:25:42.145Z,80.20
2022-11-16T03:28:29.448Z,76.00
2022-11-16T03:31:18.804Z,79.90
2022-11-16T03:33:59.360Z,76.60
2022-11-16T03:36:40.780Z,84.10
2022-11-16T03:39:24.789Z,76.40
2022-11-16T03:42:04.465Z,80.90
2022-11-16T03:44:41.975Z,77.70
2022-11-16T03:47:18.967Z,75.10
2022-11-16T03:49:54.749Z,86.40
2022-11-16T03:52:32.557Z,84.50
2022-11-16T03:55:10.851Z,81.70
2022-11-16T03:57:46.779Z,85.40
2022-11-16T04:00:23.070Z,90.20
2022-11-16T04:03:00.645Z,91.20
2022-11-16T04:05:54.538Z,97.70
2022-11-16T04:08:47.794Z,89.40
2022-11-16T04:11:44.537Z,90.90
2022-11-16T04:14:50.976Z,98.80
2022-11-16T04:17:46.139Z,100.70
2022-11-16T04:20:45.991Z,96.10
2022-11-16T04:23:39.741Z,110.60
2022-11-16T04:26:16.307Z,92.30
2022-11-16T04:28:52.161Z,97.80
2022-11-16T04:31:45.820Z,102.20
2022-11-16T04:34:39.389Z,98.00
2022-11-16T04:37:38.019Z,101.00
2022-11-16T04:40:17.557Z,96.10
2022-11-16T04:42:59.471Z,97.70
2022-11-16T04:45:55.397Z,98.50
2022-11-16T04:48:34.168Z,104.70
2022-11-16T04:51:11.984Z,89.60
2022-11-16T04:53:48.198Z,94.70
2022-11-16T04:56:27.904Z,95.20
2022-11-16T04:59:03.983Z,99.40
2022-11-16T05:01:57.745Z,92.60
2022-11-16T05:04:33.994Z,94.00
2022-11-16T05:07:12.425Z,95.60
2022-11-16T05:09:51.474Z,96.60
2022-11-16T05:12:30.237Z,101.50
2022-11-16T05:15:10.645Z,101.20
2022-11-16T05:17:46.484Z,95.60
2022-11-16T05:20:43.213Z,183.30
2022-11-16T05:23:36.699Z,128.90
2022-11-16T05:26:16.328Z,103.50
2022-11-16T05:28:52.156Z,104.90
2022-11-16T05:31:28.121Z,106.40
2022-11-16T05:34:04.295Z,96.50
2022-11-16T05:36:40.341Z,97.70
2022-11-16T05:39:17.196Z,99.40
2022-11-16T05:41:53.380Z,106.70
2022-11-16T05:44:29.852Z,100.40
2022-11-16T05:47:06.298Z,90.60
2022-11-16T05:49:42.386Z,90.90
2022-11-16T05:52:18.286Z,92.60
2022-11-16T05:54:54.492Z,93.70
2022-11-16T05:57:30.620Z,101.50
2022-11-16T06:00:08.834Z,96.80
2022-11-16T06:03:02.881Z,94.10
2022-11-16T06:05:41.574Z,97.30
2022-11-16T06:08:18.698Z,97.90
2022-11-16T06:10:55.595Z,81.10
2022-11-16T06:13:31.984Z,95.40
2022-11-16T06:16:10.536Z,95.30
2022-11-16T06:18:48.945Z,96.80
2022-11-16T06:21:25.309Z,96.70
2022-11-16T06:24:02.845Z,94.90
2022-11-16T06:26:39.823Z,83.70
2022-11-16T06:29:16.039Z,96.50
2022-11-16T06:31:52.037Z,90.90
2022-11-16T06:34:28.231Z,94.80
2022-11-16T06:37:05.620Z,89.40
2022-11-16T06:39:44.463Z,94.40
2022-11-16T06:42:20.580Z,99.00
2022-11-16T06:44:56.680Z,90.20
2022-11-16T06:47:36.100Z,97.40
2022-11-16T06:50:14.062Z,93.80
2022-11-16T06:52:50.721Z,93.00
2022-11-16T06:55:27.038Z,93.40
2022-11-16T06:58:03.028Z,90.50
2022-11-16T07:00:39.916Z,87.90
2022-11-16T07:03:17.391Z,88.30
2022-11-16T07:05:53.275Z,92.20
2022-11-16T07:08:32.417Z,84.90
2022-11-16T07:11:11.789Z,83.90
2022-11-16T07:13:48.992Z,84.80
2022-11-16T07:16:25.250Z,80.70
2022-11-16T07:19:05.259Z,77.70
2022-11-16T07:21:41.602Z,80.20
2022-11-16T07:24:21.800Z,81.10
2022-11-16T07:26:57.694Z,80.30
2022-11-16T07:29:34.936Z,74.70
2022-11-16T07:32:43.373Z,80.30
2022-11-16T07:36:12.926Z,70.40
2022-11-16T07:38:49.075Z,61.70
2022-11-16T07:41:26.363Z,54.10
2022-11-16T07:44:13.368Z,54.50
2022-11-16T07:46:50.814Z,45.20
2022-11-16T07:49:26.618Z,46.40
2022-11-16T07:52:05.520Z,41.90
2022-11-16T07:54:45.698Z,36.50
2022-11-16T07:57:22.654Z,40.30
2022-11-16T07:59:58.696Z,42.40
2022-11-16T08:02:36.737Z,42.90
2022-11-16T08:05:13.314Z,46.00
2022-11-16T08:07:49.302Z,43.50
2022-11-16T08:10:25.663Z,38.50
2022-11-16T08:13:02.912Z,35.60
2022-11-16T08:15:38.868Z,33.50
2022-11-16T08:18:15.720Z,33.50
2022-11-16T08:20:51.667Z,36.30
2022-11-16T08:23:27.658Z,30.50
2022-11-16T08:26:09.383Z,29.60
2022-11-16T08:28:50.956Z,30.40
2022-11-16T08:31:30.190Z,34.70
2022-11-16T08:34:16.605Z,29.90
2022-11-16T08:36:55.818Z,29.10
2022-11-16T08:39:36.255Z,30.00
2022-11-16T08:42:12.427Z,28.40
2022-11-16T08:44:49.202Z,28.40
2022-11-16T08:47:28.100Z,30.60
2022-11-16T08:50:08.492Z,26.30
2022-11-16T08:52:44.572Z,21.50
2022-11-16T08:55:21.107Z,25.20
2022-11-16T08:57:58.173Z,23.10
2022-11-16T09:00:35.061Z,22.50
2022-11-16T09:03:10.911Z,22.50
2022-11-16T09:05:47.501Z,24.10
2022-11-16T09:08:23.318Z,24.30
2022-11-16T09:10:59.128Z,20.00
2022-11-16T09:13:35.055Z,19.80
2022-11-16T09:16:12.016Z,21.50
2022-11-16T09:18:48.263Z,22.30
2022-11-16T09:21:26.751Z,22.40
2022-11-16T09:24:03.127Z,19.20
2022-11-16T09:26:39.443Z,18.00
2022-11-16T09:29:19.339Z,16.90
2022-11-16T09:31:55.481Z,19.00
2022-11-16T09:34:31.506Z,20.90
2022-11-16T09:37:08.275Z,21.10
2022-11-16T09:39:44.017Z,20.70
2022-11-16T09:42:45.973Z,19.10
2022-11-16T09:45:32.957Z,19.30
2022-11-16T09:48:14.883Z,18.40
2022-11-16T09:53:39.848Z,14.20
2022-11-16T09:56:22.443Z,16.60
2022-11-16T09:59:07.573Z,16.70
2022-11-16T10:01:51.723Z,16.90
2022-11-16T10:04:39.298Z,16.00
2022-11-16T10:07:22.709Z,16.60
2022-11-16T10:10:00.692Z,15.30
2022-11-16T10:12:43.998Z,15.60
2022-11-16T10:15:53.054Z,15.60
2022-11-16T10:18:49.506Z,13.60
2022-11-16T10:21:49.297Z,17.20
2022-11-16T10:24:47.797Z,14.20
2022-11-16T10:27:45.544Z,15.20
2022-11-16T10:30:24.129Z,17.30
2022-11-16T10:33:10.960Z,14.50
2022-11-16T10:35:53.777Z,13.20
2022-11-16T10:38:33.158Z,13.50
2022-11-16T10:41:22.557Z,12.70
2022-11-16T10:44:01.155Z,13.50
2022-11-16T10:46:46.897Z,11.30
2022-11-16T10:49:36.096Z,12.70
2022-11-16T10:52:12.586Z,11.20
2022-11-16T10:54:48.664Z,9.60
2022-11-16T10:57:26.648Z,10.50
2022-11-16T11:00:03.472Z,11.70
2022-11-16T11:02:48.908Z,10.50
2022-11-16T11:05:27.012Z,10.60
2022-11-16T11:08:11.800Z,11.30
2022-11-16T11:11:01.881Z,9.80
2022-11-16T11:13:38.176Z,11.10
2022-11-16T11:16:22.182Z,9.20
2022-11-16T11:18:58.224Z,11.40
2022-11-16T11:21:34.383Z,11.00
2022-11-16T11:27:22.424Z,9.70
2022-11-16T11:30:02.665Z,9.80
2022-11-16T11:32:44.891Z,10.10
2022-11-16T11:35:33.722Z,11.40
2022-11-16T11:38:15.899Z,9.70
2022-11-16T11:43:40.628Z,9.10
2022-11-16T11:46:50.237Z,10.70
2022-11-16T11:49:34.157Z,11.40
2022-11-16T11:52:22.676Z,10.50
2022-11-16T11:54:59.281Z,8.60
2022-11-16T11:57:40.968Z,8.30
2022-11-16T12:00:21.948Z,8.80
2022-11-16T12:03:41.575Z,10.30
2022-11-16T12:06:29.547Z,8.70
2022-11-16T12:09:31.684Z,10.30
2022-11-16T12:15:36.629Z,7.30
2022-11-16T12:18:38.783Z,10.90
2022-11-16T12:21:22.718Z,9.00
2022-11-16T12:24:27.638Z,9.00
2022-11-16T12:27:19.272Z,8.80
2022-11-16T12:30:08.715Z,9.90
2022-11-16T12:33:29.881Z,9.20
2022-11-16T12:36:30.369Z,8.70
2022-11-16T12:39:29.174Z,9.00
2022-11-16T12:42:30.934Z,8.30
2022-11-16T12:45:43.815Z,8.90
2022-11-16T12:48:51.265Z,8.90
2022-11-16T12:51:50.885Z,9.40
2022-11-16T12:55:25.358Z,9.60
2022-11-16T12:58:19.373Z,9.70
2022-11-16T13:01:14.401Z,10.30
2022-11-16T13:03:57.150Z,13.00
2022-11-16T13:06:39.783Z,10.10
2022-11-16T13:09:21.655Z,10.10
2022-11-16T13:14:41.353Z,8.40
2022-11-16T13:17:23.579Z,10.70
2022-11-16T13:20:35.246Z,9.50
2022-11-16T13:23:20.080Z,8.50
2022-11-16T13:26:10.411Z,8.20
2022-11-16T13:28:57.223Z,10.00
2022-11-16T13:31:44.394Z,10.80
2022-11-16T13:34:29.347Z,8.00
2022-11-16T13:37:44.261Z,9.30
2022-11-16T13:40:34.266Z,10.20
2022-11-16T13:43:22.701Z,8.50
2022-11-16T13:46:03.436Z,9.20
2022-11-16T13:48:46.063Z,7.40
2022-11-16T13:51:25.705Z,7.70
2022-11-16T13:54:44.095Z,7.20
2022-11-16T13:56:58.503Z,7.60
2022-11-16T13:59:38.200Z,8.10
2022-11-16T14:02:36.342Z,6.70
2022-11-16T14:05:43.767Z,8.60
2022-11-16T14:08:58.404Z,7.40
2022-11-16T14:11:39.914Z,6.90
2022-11-16T14:14:56.297Z,6.90
2022-11-16T14:17:59.394Z,7.80
2022-11-16T14:21:03.104Z,6.60
2022-11-16T14:24:17.469Z,7.00
2022-11-16T14:27:08.467Z,6.90
2022-11-16T14:30:03.797Z,6.70
2022-11-16T14:32:49.842Z,6.50
2022-11-16T14:35:40.899Z,7.40
2022-11-16T14:38:33.168Z,6.80
2022-11-16T14:41:22.615Z,6.70
2022-11-16T14:44:01.366Z,7.30
2022-11-16T14:46:40.989Z,8.30
2022-11-16T14:49:20.476Z,7.70
2022-11-16T14:52:02.576Z,8.80
2022-11-16T14:54:49.018Z,8.70
2022-11-16T14:57:26.965Z,9.20
2022-11-16T15:00:27.013Z,9.10
2022-11-16T15:03:03.869Z,9.50
2022-11-16T15:05:41.144Z,9.70
2022-11-16T15:08:24.785Z,9.30
2022-11-16T15:11:01.448Z,8.80
2022-11-16T15:13:38.249Z,8.70
2022-11-16T15:16:23.018Z,8.60
2022-11-16T15:19:13.234Z,9.10
2022-11-16T15:21:59.206Z,8.90
2022-11-16T15:24:37.051Z,9.30
2022-11-16T15:27:37.620Z,10.60
2022-11-16T15:30:24.844Z,8.60
2022-11-16T15:33:02.649Z,13.20
2022-11-16T15:35:40.829Z,11.10
2022-11-16T15:38:24.252Z,8.80
2022-11-16T15:41:03.726Z,9.70
2022-11-16T15:44:11.739Z,8.20
2022-11-16T15:46:49.032Z,7.60
2022-11-16T15:49:35.016Z,9.20
2022-11-16T15:52:11.484Z,9.10
2022-11-16T15:55:07.465Z,8.40
2022-11-16T15:57:46.542Z,44.60
2022-11-16T16:00:31.777Z,8.10
2022-11-16T16:03:21.509Z,8.80
2022-11-16T16:05:58.363Z,7.50
2022-11-16T16:08:41.826Z,8.20
2022-11-16T16:11:30.722Z,7.90
2022-11-16T16:14:10.852Z,6.50
2022-11-16T16:16:52.534Z,6.30
2022-11-16T16:19:41.293Z,9.40
2022-11-16T16:22:31.547Z,7.20
2022-11-16T16:25:23.264Z,6.60
2022-11-16T16:27:59.995Z,24.20
2022-11-16T16:30:37.062Z,7.20
2022-11-16T16:33:24.344Z,6.80
2022-11-16T16:36:00.225Z,7.60
2022-11-16T16:38:36.398Z,8.10
2022-11-16T16:41:24.450Z,10.20
2022-11-16T16:44:00.952Z,8.30
2022-11-16T16:46:37.106Z,6.10
2022-11-16T16:49:13.125Z,8.50
2022-11-16T16:51:49.408Z,7.00
2022-11-16T16:54:26.175Z,7.40
2022-11-16T16:57:02.571Z,11.70
2022-11-16T16:59:38.468Z,7.40
2022-11-16T17:02:16.268Z,6.20
2022-11-16T17:04:52.448Z,6.40
2022-11-16T17:07:28.632Z,7.10
2022-11-16T17:10:05.221Z,7.60
2022-11-16T17:12:41.391Z,7.10
2022-11-16T17:15:19.497Z,7.30
2022-11-16T17:17:55.814Z,9.50
2022-11-16T17:20:32.852Z,8.30
2022-11-16T17:23:09.169Z,8.00
2022-11-16T17:25:45.107Z,9.20
2022-11-16T17:28:21.166Z,7.40
2022-11-16T17:31:01.287Z,6.70
2022-11-16T17:33:41.724Z,6.60
2022-11-16T17:36:19.947Z,6.70
2022-11-16T17:38:55.878Z,7.60
2022-11-16T17:41:31.823Z,5.90
2022-11-16T17:44:09.324Z,5.40
2022-11-16T17:46:45.311Z,6.30
2022-11-16T17:49:21.610Z,6.70
2022-11-16T17:51:57.576Z,7.70
2022-11-16T17:54:33.698Z,7.20
2022-11-16T17:57:10.311Z,6.80
2022-11-16T17:59:46.809Z,11.50
2022-11-16T18:02:22.931Z,6.40
2022-11-16T18:04:59.117Z,5.40
2022-11-16T18:07:38.548Z,5.80
2022-11-16T18:10:19.261Z,5.60
2022-11-16T18:12:56.482Z,6.30
2022-11-16T18:15:37.790Z,7.10
2022-11-16T18:18:17.450Z,6.20
2022-11-16T18:20:53.347Z,6.30
2022-11-16T18:23:29.437Z,8.70
2022-11-16T18:26:12.600Z,7.00
2022-11-16T18:28:50.427Z,6.10
2022-11-16T18:31:28.192Z,7.30
2022-11-16T18:34:04.498Z,7.90
2022-11-16T18:36:40.662Z,7.90
2022-11-16T18:39:17.971Z,9.00
2022-11-16T18:41:55.291Z,10.70
2022-11-16T18:44:31.456Z,7.00
2022-11-16T18:47:07.629Z,7.70
2022-11-16T18:49:43.513Z,7.60
2022-11-16T18:52:19.534Z,7.20
2022-11-16T18:54:55.529Z,7.70
2022-11-16T18:57:32.502Z,7.30
2022-11-16T19:00:11.752Z,18.90
2022-11-16T19:02:48.896Z,6.50
2022-11-16T19:05:24.760Z,8.20
2022-11-16T19:08:00.758Z,7.10
2022-11-16T19:10:40.455Z,7.00
2022-11-16T19:13:17.867Z,6.80
2022-11-16T19:15:57.308Z,6.80
2022-11-16T19:18:33.551Z,7.60
2022-11-16T19:21:12.931Z,6.00
2022-11-16T19:23:52.405Z,7.60
2022-11-16T19:26:30.153Z,7.10
2022-11-16T19:29:06.961Z,8.10
2022-11-16T19:31:42.935Z,6.10
2022-11-16T19:34:19.361Z,5.90
2022-11-16T19:36:55.310Z,6.60
2022-11-16T19:39:31.356Z,8.70
2022-11-16T19:42:07.583Z,6.90
2022-11-16T19:44:43.693Z,7.60
2022-11-16T19:47:19.736Z,6.30
2022-11-16T19:49:56.099Z,9.00
2022-11-16T19:52:32.466Z,9.50
2022-11-16T19:55:10.455Z,5.80
2022-11-16T19:57:46.630Z,5.70
2022-11-16T20:00:24.502Z,5.90
2022-11-16T20:03:02.709Z,6.50
2022-11-16T20:05:38.694Z,7.60
2022-11-16T20:08:15.760Z,7.90
2022-11-16T20:10:51.880Z,6.00
2022-11-16T20:13:27.844Z,7.40
2022-11-16T20:16:07.382Z,6.20
2022-11-16T20:18:44.903Z,6.80
2022-11-16T20:21:29.001Z,7.00
2022-11-16T20:24:11.195Z,9.30
2022-11-16T20:26:50.289Z,8.30
2022-11-16T20:29:26.667Z,5.30
2022-11-16T20:32:02.723Z,6.40
2022-11-16T20:34:38.710Z,5.50
2022-11-16T20:37:16.535Z,9.20
2022-11-16T20:39:57.254Z,5.50
2022-11-16T20:42:33.572Z,6.30
2022-11-16T20:45:13.108Z,6.60
2022-11-16T20:47:49.152Z,6.90
2022-11-16T20:50:25.331Z,7.00
2022-11-16T20:53:01.326Z,7.50
2022-11-16T20:55:37.960Z,6.90
2022-11-16T20:58:18.645Z,7.50
2022-11-16T21:01:00.405Z,8.10
2022-11-16T21:03:37.716Z,5.80
2022-11-16T21:06:15.095Z,6.90
2022-11-16T21:08:51.328Z,5.90
2022-11-16T21:11:51.210Z,6.70
2022-11-16T21:14:28.685Z,7.10
2022-11-16T21:17:05.192Z,6.00
2022-11-16T21:19:54.308Z,6.90
2022-11-16T21:22:38.759Z,5.60
2022-11-16T21:25:15.957Z,6.30
2022-11-16T21:27:52.686Z,5.90
2022-11-16T21:30:31.541Z,6.30
2022-11-16T21:33:07.900Z,6.30
2022-11-16T21:35:44.550Z,7.20
2022-11-16T21:38:21.259Z,5.30
2022-11-16T21:40:57.394Z,6.70
2022-11-16T21:43:35.573Z,6.20
2022-11-16T21:46:16.004Z,7.10
2022-11-16T21:48:52.935Z,8.00
2022-11-16T21:51:30.906Z,6.20
2022-11-16T21:54:07.428Z,5.40
2022-11-16T21:56:43.354Z,6.10
2022-11-16T21:59:19.276Z,7.20
2022-11-16T22:02:00.705Z,6.90
2022-11-16T22:04:54.324Z,6.30
2022-11-16T22:07:37.829Z,5.90
2022-11-16T22:10:15.682Z,4.90
2022-11-16T22:12:51.465Z,5.20
2022-11-16T22:15:27.357Z,4.70
2022-11-16T22:18:04.603Z,4.10
2022-11-16T22:20:40.580Z,4.70
2022-11-16T22:23:22.521Z,6.10
2022-11-16T22:26:04.042Z,5.80
2022-11-16T22:28:40.523Z,4.30
2022-11-16T22:31:18.080Z,4.90
2022-11-16T22:33:57.188Z,4.60
2022-11-16T22:36:33.029Z,4.70
2022-11-16T22:39:09.059Z,5.00
2022-11-16T22:41:45.002Z,4.00
2022-11-16T22:44:20.964Z,6.10
2022-11-16T22:46:57.316Z,5.20
2022-11-16T22:49:33.451Z,4.20
2022-11-16T22:52:09.528Z,3.80
2022-11-16T22:54:45.534Z,3.70
2022-11-16T22:57:21.769Z,4.10
2022-11-16T22:59:57.712Z,4.00
2022-11-16T23:02:33.519Z,5.80
2022-11-16T23:05:10.969Z,4.30
2022-11-16T23:07:46.860Z,3.70
2022-11-16T23:10:23.106Z,3.70
2022-11-16T23:13:16.663Z,4.50
2022-11-16T23:15:52.952Z,3.80
2022-11-16T23:18:29.573Z,5.40
2022-11-16T23:21:24.684Z,6.30
2022-11-16T23:24:21.407Z,5.40
2022-11-16T23:27:15.568Z,3.10
2022-11-16T23:29:53.558Z,7.50
2022-11-16T23:32:30.254Z,4.00
2022-11-16T23:35:07.154Z,3.70
2022-11-16T23:37:57.066Z,4.80
2022-11-16T23:40:36.217Z,4.80
2022-11-16T23:43:31.637Z,4.00
2022-11-16T23:46:07.743Z,4.50
2022-11-16T23:48:43.913Z,5.20
2022-11-16T23:51:23.804Z,6.00
2022-11-16T23:54:00.306Z,5.50
2022-11-16T23:56:36.436Z,5.10
2022-11-16T23:59:13.113Z,5.60
